sensor_id;sensor_type;location;lat;lon;timestamp;pressure;altitude;pressure_sealevel;temperature;humidity
34482;BME280;20720;48.886;9.388;2023-05-25T00:00:33;98809.94;;;14.87;76.58
34482;BME280;20720;48.886;9.388;2023-05-25T00:02:58;98813.19;;;14.89;76.33
34482;BME280;20720;48.886;9.388;2023-05-25T00:05:25;98808.97;;;14.75;77.73
34482;BME280;20720;48.886;9.388;2023-05-25T00:07:54;98811.03;;;14.73;77.67
34482;BME280;20720;48.886;9.388;2023-05-25T00:10:20;98803.66;;;14.81;77.49
34482;BME280;20720;48.886;9.388;2023-05-25T00:12:46;98803.09;;;14.42;78.10
34482;BME280;20720;48.886;9.388;2023-05-25T00:15:11;98806.25;;;14.57;78.06
34482;BME280;20720;48.886;9.388;2023-05-25T00:17:36;98806.94;;;14.46;79.33
34482;BME280;20720;48.886;9.388;2023-05-25T00:20:03;98803.25;;;14.47;80.13
34482;BME280;20720;48.886;9.388;2023-05-25T00:22:32;98791.47;;;13.98;81.82
34482;BME280;20720;48.886;9.388;2023-05-25T00:24:58;98803.94;;;14.29;80.76
34482;BME280;20720;48.886;9.388;2023-05-25T00:27:23;98804.63;;;14.56;79.58
34482;BME280;20720;48.886;9.388;2023-05-25T00:29:49;98808.22;;;14.68;77.77
34482;BME280;20720;48.886;9.388;2023-05-25T00:32:14;98805.53;;;14.43;77.85
34482;BME280;20720;48.886;9.388;2023-05-25T00:34:40;98802.91;;;14.37;78.78
34482;BME280;20720;48.886;9.388;2023-05-25T00:37:05;98800.94;;;14.88;76.02
34482;BME280;20720;48.886;9.388;2023-05-25T00:39:31;98808.19;;;14.37;76.81
34482;BME280;20720;48.886;9.388;2023-05-25T00:41:56;98798.09;;;14.58;79.82
34482;BME280;20720;48.886;9.388;2023-05-25T00:44:22;98803.22;;;14.02;80.04
34482;BME280;20720;48.886;9.388;2023-05-25T00:46:49;98801.66;;;14.77;75.66
34482;BME280;20720;48.886;9.388;2023-05-25T00:49:16;98797.81;;;14.35;79.50
34482;BME280;20720;48.886;9.388;2023-05-25T00:51:42;98793.03;;;14.12;78.17
34482;BME280;20720;48.886;9.388;2023-05-25T00:54:11;98799.47;;;14.30;77.57
34482;BME280;20720;48.886;9.388;2023-05-25T00:56:39;98799.84;;;15.02;76.33
34482;BME280;20720;48.886;9.388;2023-05-25T00:59:05;98792.81;;;15.14;75.45
34482;BME280;20720;48.886;9.388;2023-05-25T01:01:35;98800.94;;;15.44;73.21
34482;BME280;20720;48.886;9.388;2023-05-25T01:04:06;98803.81;;;15.42;74.75
34482;BME280;20720;48.886;9.388;2023-05-25T01:06:32;98794.97;;;15.48;75.04
34482;BME280;20720;48.886;9.388;2023-05-25T01:09:02;98788.59;;;15.31;75.45
34482;BME280;20720;48.886;9.388;2023-05-25T01:11:33;98790.00;;;14.53;79.59
34482;BME280;20720;48.886;9.388;2023-05-25T01:13:59;98786.22;;;14.74;78.97
34482;BME280;20720;48.886;9.388;2023-05-25T01:16:46;98781.81;;;14.61;77.72
34482;BME280;20720;48.886;9.388;2023-05-25T01:19:11;98789.97;;;14.15;79.92
34482;BME280;20720;48.886;9.388;2023-05-25T01:21:52;98780.78;;;14.25;80.59
34482;BME280;20720;48.886;9.388;2023-05-25T01:24:32;98785.03;;;13.68;82.54
34482;BME280;20720;48.886;9.388;2023-05-25T01:29:47;98788.56;;;13.36;82.19
34482;BME280;20720;48.886;9.388;2023-05-25T01:32:14;98789.00;;;14.03;80.29
34482;BME280;20720;48.886;9.388;2023-05-25T01:34:42;98785.03;;;13.81;79.65
34482;BME280;20720;48.886;9.388;2023-05-25T01:37:08;98778.75;;;14.20;79.22
34482;BME280;20720;48.886;9.388;2023-05-25T01:39:33;98784.78;;;14.40;78.47
34482;BME280;20720;48.886;9.388;2023-05-25T01:41:59;98787.84;;;13.86;80.47
34482;BME280;20720;48.886;9.388;2023-05-25T01:44:26;98784.56;;;13.97;80.69
34482;BME280;20720;48.886;9.388;2023-05-25T01:49:38;98786.28;;;14.30;79.43
34482;BME280;20720;48.886;9.388;2023-05-25T01:52:11;98786.16;;;14.05;80.11
34482;BME280;20720;48.886;9.388;2023-05-25T01:55:00;98788.72;;;14.25;79.33
34482;BME280;20720;48.886;9.388;2023-05-25T01:57:28;98792.13;;;13.74;83.26
34482;BME280;20720;48.886;9.388;2023-05-25T01:59:55;98789.53;;;14.18;80.34
34482;BME280;20720;48.886;9.388;2023-05-25T02:02:24;98782.56;;;13.80;81.42
34482;BME280;20720;48.886;9.388;2023-05-25T02:04:52;98784.94;;;14.07;82.76
34482;BME280;20720;48.886;9.388;2023-05-25T02:07:18;98786.31;;;14.16;82.84
34482;BME280;20720;48.886;9.388;2023-05-25T02:09:43;98782.41;;;13.68;82.04
34482;BME280;20720;48.886;9.388;2023-05-25T02:12:08;98779.31;;;13.84;83.46
34482;BME280;20720;48.886;9.388;2023-05-25T02:14:34;98777.91;;;13.82;83.43
34482;BME280;20720;48.886;9.388;2023-05-25T02:16:59;98776.44;;;13.92;83.38
34482;BME280;20720;48.886;9.388;2023-05-25T02:19:26;98780.16;;;13.78;85.35
34482;BME280;20720;48.886;9.388;2023-05-25T02:21:51;98763.03;;;13.94;84.24
34482;BME280;20720;48.886;9.388;2023-05-25T02:24:16;98764.84;;;14.00;84.19
34482;BME280;20720;48.886;9.388;2023-05-25T02:26:42;98768.06;;;13.51;86.69
34482;BME280;20720;48.886;9.388;2023-05-25T02:29:07;98770.19;;;13.80;85.74
34482;BME280;20720;48.886;9.388;2023-05-25T02:31:33;98763.63;;;13.32;90.12
34482;BME280;20720;48.886;9.388;2023-05-25T02:33:58;98767.28;;;13.05;90.52
34482;BME280;20720;48.886;9.388;2023-05-25T02:36:23;98768.41;;;13.61;88.07
34482;BME280;20720;48.886;9.388;2023-05-25T02:38:49;98764.38;;;13.59;88.60
34482;BME280;20720;48.886;9.388;2023-05-25T02:41:17;98760.13;;;13.51;86.77
34482;BME280;20720;48.886;9.388;2023-05-25T02:43:42;98763.41;;;13.34;89.03
34482;BME280;20720;48.886;9.388;2023-05-25T02:46:07;98766.00;;;13.53;88.17
34482;BME280;20720;48.886;9.388;2023-05-25T02:48:32;98765.41;;;13.45;86.92
34482;BME280;20720;48.886;9.388;2023-05-25T02:50:58;98770.69;;;13.38;87.91
34482;BME280;20720;48.886;9.388;2023-05-25T02:53:23;98768.84;;;13.58;87.47
34482;BME280;20720;48.886;9.388;2023-05-25T02:55:48;98767.63;;;13.54;87.73
34482;BME280;20720;48.886;9.388;2023-05-25T02:58:13;98772.50;;;13.51;88.89
34482;BME280;20720;48.886;9.388;2023-05-25T03:00:39;98774.94;;;13.52;88.30
34482;BME280;20720;48.886;9.388;2023-05-25T03:03:06;98779.81;;;13.42;89.13
34482;BME280;20720;48.886;9.388;2023-05-25T03:05:32;98781.84;;;12.75;92.45
34482;BME280;20720;48.886;9.388;2023-05-25T03:07:59;98789.78;;;12.88;92.98
34482;BME280;20720;48.886;9.388;2023-05-25T03:10:25;98780.84;;;12.76;94.44
34482;BME280;20720;48.886;9.388;2023-05-25T03:12:50;98785.09;;;12.70;93.65
34482;BME280;20720;48.886;9.388;2023-05-25T03:15:15;98791.59;;;12.81;93.47
34482;BME280;20720;48.886;9.388;2023-05-25T03:17:41;98789.94;;;12.54;94.59
34482;BME280;20720;48.886;9.388;2023-05-25T03:20:06;98791.44;;;13.28;89.64
34482;BME280;20720;48.886;9.388;2023-05-25T03:22:34;98793.38;;;13.72;86.06
34482;BME280;20720;48.886;9.388;2023-05-25T03:24:59;98794.34;;;13.90;84.22
34482;BME280;20720;48.886;9.388;2023-05-25T03:27:25;98787.31;;;13.58;86.13
34482;BME280;20720;48.886;9.388;2023-05-25T03:29:50;98790.63;;;13.28;88.76
34482;BME280;20720;48.886;9.388;2023-05-25T03:32:15;98787.75;;;12.90;91.99
34482;BME280;20720;48.886;9.388;2023-05-25T03:34:41;98796.91;;;13.20;91.16
34482;BME280;20720;48.886;9.388;2023-05-25T03:37:06;98792.19;;;13.68;89.16
34482;BME280;20720;48.886;9.388;2023-05-25T03:39:32;98795.16;;;13.78;87.19
34482;BME280;20720;48.886;9.388;2023-05-25T03:41:57;98795.25;;;13.58;88.88
34482;BME280;20720;48.886;9.388;2023-05-25T03:44:22;98788.28;;;13.77;87.83
34482;BME280;20720;48.886;9.388;2023-05-25T03:46:48;98802.06;;;13.85;86.66
34482;BME280;20720;48.886;9.388;2023-05-25T03:49:13;98803.88;;;13.91;87.17
34482;BME280;20720;48.886;9.388;2023-05-25T03:51:42;98800.66;;;13.76;89.36
34482;BME280;20720;48.886;9.388;2023-05-25T03:54:07;98801.72;;;13.62;90.49
34482;BME280;20720;48.886;9.388;2023-05-25T03:56:33;98812.28;;;13.56;91.98
34482;BME280;20720;48.886;9.388;2023-05-25T03:58:58;98807.00;;;13.62;92.73
34482;BME280;20720;48.886;9.388;2023-05-25T04:01:24;98794.03;;;13.48;93.79
34482;BME280;20720;48.886;9.388;2023-05-25T04:03:51;98803.00;;;13.27;95.77
34482;BME280;20720;48.886;9.388;2023-05-25T04:06:17;98807.63;;;13.38;96.62
34482;BME280;20720;48.886;9.388;2023-05-25T04:08:44;98804.97;;;13.58;93.95
34482;BME280;20720;48.886;9.388;2023-05-25T04:11:09;98807.81;;;13.63;93.27
34482;BME280;20720;48.886;9.388;2023-05-25T04:13:35;98809.06;;;13.54;92.85
34482;BME280;20720;48.886;9.388;2023-05-25T04:16:00;98807.44;;;13.46;94.35
34482;BME280;20720;48.886;9.388;2023-05-25T04:18:26;98812.66;;;13.72;91.53
34482;BME280;20720;48.886;9.388;2023-05-25T04:20:51;98814.34;;;13.47;92.31
34482;BME280;20720;48.886;9.388;2023-05-25T04:23:16;98810.66;;;13.68;93.74
34482;BME280;20720;48.886;9.388;2023-05-25T04:25:43;98818.38;;;13.69;92.41
34482;BME280;20720;48.886;9.388;2023-05-25T04:28:09;98820.31;;;13.93;91.97
34482;BME280;20720;48.886;9.388;2023-05-25T04:30:36;98827.53;;;13.60;94.47
34482;BME280;20720;48.886;9.388;2023-05-25T04:33:02;98818.50;;;13.87;92.19
34482;BME280;20720;48.886;9.388;2023-05-25T04:35:27;98826.25;;;13.89;93.56
34482;BME280;20720;48.886;9.388;2023-05-25T04:37:52;98828.84;;;13.95;92.04
34482;BME280;20720;48.886;9.388;2023-05-25T04:40:18;98828.94;;;14.40;89.00
34482;BME280;20720;48.886;9.388;2023-05-25T04:42:45;98837.28;;;13.66;93.50
34482;BME280;20720;48.886;9.388;2023-05-25T04:45:12;98833.75;;;13.85;93.54
34482;BME280;20720;48.886;9.388;2023-05-25T04:47:41;98837.91;;;14.70;88.79
34482;BME280;20720;48.886;9.388;2023-05-25T04:50:09;98833.59;;;14.75;84.38
34482;BME280;20720;48.886;9.388;2023-05-25T04:52:35;98832.06;;;15.48;81.46
34482;BME280;20720;48.886;9.388;2023-05-25T04:55:01;98830.69;;;14.52;85.66
34482;BME280;20720;48.886;9.388;2023-05-25T04:57:27;98824.47;;;15.94;79.39
34482;BME280;20720;48.886;9.388;2023-05-25T04:59:53;98831.19;;;16.63;77.54
34482;BME280;20720;48.886;9.388;2023-05-25T05:02:18;98836.94;;;16.89;74.31
34482;BME280;20720;48.886;9.388;2023-05-25T05:04:43;98837.13;;;16.76;74.61
34482;BME280;20720;48.886;9.388;2023-05-25T05:07:08;98831.91;;;16.70;75.71
34482;BME280;20720;48.886;9.388;2023-05-25T05:09:34;98833.56;;;17.58;72.12
34482;BME280;20720;48.886;9.388;2023-05-25T05:11:59;98837.75;;;18.29;69.13
34482;BME280;20720;48.886;9.388;2023-05-25T05:14:25;98842.03;;;18.41;68.65
34482;BME280;20720;48.886;9.388;2023-05-25T05:16:51;98849.31;;;18.46;67.89
34482;BME280;20720;48.886;9.388;2023-05-25T05:19:16;98852.13;;;18.28;67.92
34482;BME280;20720;48.886;9.388;2023-05-25T05:21:41;98854.22;;;18.26;68.39
34482;BME280;20720;48.886;9.388;2023-05-25T05:24:06;98859.72;;;18.36;68.86
34482;BME280;20720;48.886;9.388;2023-05-25T05:26:32;98861.25;;;17.39;69.41
34482;BME280;20720;48.886;9.388;2023-05-25T05:28:57;98868.41;;;18.54;67.86
34482;BME280;20720;48.886;9.388;2023-05-25T05:31:22;98867.91;;;18.86;66.76
34482;BME280;20720;48.886;9.388;2023-05-25T05:33:48;98867.72;;;19.20;65.76
34482;BME280;20720;48.886;9.388;2023-05-25T05:36:13;98879.69;;;18.10;68.41
34482;BME280;20720;48.886;9.388;2023-05-25T05:38:38;98872.47;;;19.02;65.90
34482;BME280;20720;48.886;9.388;2023-05-25T05:41:06;98886.06;;;18.09;67.27
34482;BME280;20720;48.886;9.388;2023-05-25T05:43:37;98873.75;;;18.20;67.37
34482;BME280;20720;48.886;9.388;2023-05-25T05:46:04;98878.28;;;18.08;69.36
34482;BME280;20720;48.886;9.388;2023-05-25T05:48:29;98879.78;;;18.95;66.06
34482;BME280;20720;48.886;9.388;2023-05-25T05:50:54;98887.56;;;17.70;69.45
34482;BME280;20720;48.886;9.388;2023-05-25T05:53:19;98892.75;;;17.24;73.03
34482;BME280;20720;48.886;9.388;2023-05-25T05:55:45;98889.63;;;17.92;71.58
34482;BME280;20720;48.886;9.388;2023-05-25T05:58:10;98884.47;;;17.32;73.65
34482;BME280;20720;48.886;9.388;2023-05-25T06:00:35;98883.84;;;17.95;71.55
34482;BME280;20720;48.886;9.388;2023-05-25T06:03:01;98891.28;;;17.28;73.20
34482;BME280;20720;48.886;9.388;2023-05-25T06:05:26;98897.69;;;18.43;69.31
34482;BME280;20720;48.886;9.388;2023-05-25T06:07:51;98898.59;;;16.73;74.71
34482;BME280;20720;48.886;9.388;2023-05-25T06:10:17;98901.50;;;17.54;71.86
34482;BME280;20720;48.886;9.388;2023-05-25T06:12:42;98903.13;;;18.13;70.33
34482;BME280;20720;48.886;9.388;2023-05-25T06:15:07;98896.28;;;18.29;69.44
34482;BME280;20720;48.886;9.388;2023-05-25T06:17:33;98898.19;;;18.68;68.71
34482;BME280;20720;48.886;9.388;2023-05-25T06:19:59;98897.28;;;16.94;74.70
34482;BME280;20720;48.886;9.388;2023-05-25T06:22:24;98891.97;;;17.88;70.65
34482;BME280;20720;48.886;9.388;2023-05-25T06:24:52;98895.47;;;17.47;71.96
34482;BME280;20720;48.886;9.388;2023-05-25T06:27:17;98899.03;;;17.41;73.71
34482;BME280;20720;48.886;9.388;2023-05-25T06:29:43;98899.56;;;17.61;69.70
34482;BME280;20720;48.886;9.388;2023-05-25T06:32:08;98906.28;;;17.87;74.33
34482;BME280;20720;48.886;9.388;2023-05-25T06:34:35;98902.38;;;19.20;67.75
34482;BME280;20720;48.886;9.388;2023-05-25T06:37:00;98902.03;;;19.61;67.92
34482;BME280;20720;48.886;9.388;2023-05-25T06:39:26;98912.84;;;18.19;69.77
34482;BME280;20720;48.886;9.388;2023-05-25T06:41:51;98920.38;;;18.34;71.56
34482;BME280;20720;48.886;9.388;2023-05-25T06:44:16;98914.81;;;17.25;73.63
34482;BME280;20720;48.886;9.388;2023-05-25T06:46:43;98915.53;;;17.61;74.53
34482;BME280;20720;48.886;9.388;2023-05-25T06:49:08;98908.34;;;17.73;72.66
34482;BME280;20720;48.886;9.388;2023-05-25T06:51:33;98908.34;;;17.73;75.16
34482;BME280;20720;48.886;9.388;2023-05-25T06:53:59;98913.91;;;18.07;75.52
34482;BME280;20720;48.886;9.388;2023-05-25T06:56:24;98912.53;;;19.85;70.32
34482;BME280;20720;48.886;9.388;2023-05-25T06:58:50;98920.84;;;17.84;75.81
34482;BME280;20720;48.886;9.388;2023-05-25T07:01:15;98923.16;;;17.28;76.55
34482;BME280;20720;48.886;9.388;2023-05-25T07:03:41;98922.94;;;17.71;77.37
34482;BME280;20720;48.886;9.388;2023-05-25T07:06:06;98931.25;;;17.33;78.36
34482;BME280;20720;48.886;9.388;2023-05-25T07:08:32;98930.31;;;17.28;79.70
34482;BME280;20720;48.886;9.388;2023-05-25T07:10:57;98936.81;;;17.02;78.60
34482;BME280;20720;48.886;9.388;2023-05-25T07:13:22;98931.63;;;16.77;79.75
34482;BME280;20720;48.886;9.388;2023-05-25T07:15:48;98931.00;;;17.64;78.81
34482;BME280;20720;48.886;9.388;2023-05-25T07:18:13;98931.19;;;18.95;75.26
34482;BME280;20720;48.886;9.388;2023-05-25T07:20:39;98938.78;;;19.15;72.83
34482;BME280;20720;48.886;9.388;2023-05-25T07:23:11;98934.84;;;17.80;75.96
34482;BME280;20720;48.886;9.388;2023-05-25T07:25:36;98936.88;;;17.25;80.45
34482;BME280;20720;48.886;9.388;2023-05-25T07:28:02;98932.63;;;18.12;76.79
34482;BME280;20720;48.886;9.388;2023-05-25T07:30:27;98934.75;;;18.72;73.86
34482;BME280;20720;48.886;9.388;2023-05-25T07:32:52;98940.63;;;18.46;75.00
34482;BME280;20720;48.886;9.388;2023-05-25T07:35:18;98936.56;;;17.74;78.17
34482;BME280;20720;48.886;9.388;2023-05-25T07:37:43;98941.31;;;17.96;77.61
34482;BME280;20720;48.886;9.388;2023-05-25T07:40:09;98932.63;;;17.65;75.30
34482;BME280;20720;48.886;9.388;2023-05-25T07:42:35;98926.44;;;19.25;72.15
34482;BME280;20720;48.886;9.388;2023-05-25T07:45:01;98930.41;;;18.55;73.63
34482;BME280;20720;48.886;9.388;2023-05-25T07:47:27;98930.16;;;19.24;73.19
34482;BME280;20720;48.886;9.388;2023-05-25T07:49:52;98933.75;;;19.02;72.98
34482;BME280;20720;48.886;9.388;2023-05-25T07:52:18;98934.78;;;20.12;68.69
34482;BME280;20720;48.886;9.388;2023-05-25T07:54:44;98935.25;;;20.42;66.73
34482;BME280;20720;48.886;9.388;2023-05-25T07:57:09;98947.56;;;18.24;73.86
34482;BME280;20720;48.886;9.388;2023-05-25T07:59:34;98943.41;;;19.81;67.82
34482;BME280;20720;48.886;9.388;2023-05-25T08:02:00;98934.50;;;19.58;71.06
34482;BME280;20720;48.886;9.388;2023-05-25T08:04:25;98935.69;;;18.66;73.89
34482;BME280;20720;48.886;9.388;2023-05-25T08:06:50;98932.50;;;21.87;66.57
34482;BME280;20720;48.886;9.388;2023-05-25T08:09:15;98936.53;;;22.78;59.69
34482;BME280;20720;48.886;9.388;2023-05-25T08:11:41;98933.44;;;20.69;66.40
34482;BME280;20720;48.886;9.388;2023-05-25T08:14:08;98936.91;;;21.13;63.62
34482;BME280;20720;48.886;9.388;2023-05-25T08:16:33;98932.53;;;20.58;67.46
34482;BME280;20720;48.886;9.388;2023-05-25T08:18:58;98937.22;;;22.06;64.51
34482;BME280;20720;48.886;9.388;2023-05-25T08:21:25;98929.91;;;21.65;62.15
34482;BME280;20720;48.886;9.388;2023-05-25T08:23:50;98931.66;;;20.53;67.08
34482;BME280;20720;48.886;9.388;2023-05-25T08:26:16;98928.50;;;18.78;73.80
34482;BME280;20720;48.886;9.388;2023-05-25T08:28:41;98928.09;;;20.26;67.82
34482;BME280;20720;48.886;9.388;2023-05-25T08:31:06;98935.00;;;21.98;65.85
34482;BME280;20720;48.886;9.388;2023-05-25T08:33:32;98938.09;;;22.22;62.25
34482;BME280;20720;48.886;9.388;2023-05-25T08:35:57;98937.69;;;21.67;64.91
34482;BME280;20720;48.886;9.388;2023-05-25T08:38:23;98935.63;;;21.79;66.37
34482;BME280;20720;48.886;9.388;2023-05-25T08:41:01;98945.72;;;20.92;65.24
34482;BME280;20720;48.886;9.388;2023-05-25T08:43:27;98947.22;;;21.58;65.64
34482;BME280;20720;48.886;9.388;2023-05-25T08:45:54;98941.81;;;20.99;65.59
34482;BME280;20720;48.886;9.388;2023-05-25T08:48:25;98944.44;;;20.94;66.38
34482;BME280;20720;48.886;9.388;2023-05-25T08:50:51;98949.19;;;21.67;64.33
34482;BME280;20720;48.886;9.388;2023-05-25T08:53:17;98949.81;;;21.47;65.92
34482;BME280;20720;48.886;9.388;2023-05-25T08:55:46;98945.81;;;20.75;67.19
34482;BME280;20720;48.886;9.388;2023-05-25T08:58:19;98945.97;;;20.69;67.46
34482;BME280;20720;48.886;9.388;2023-05-25T09:00:57;98942.28;;;22.03;64.30
34482;BME280;20720;48.886;9.388;2023-05-25T09:03:26;98950.09;;;20.76;67.98
34482;BME280;20720;48.886;9.388;2023-05-25T09:05:54;98938.06;;;22.12;63.44
34482;BME280;20720;48.886;9.388;2023-05-25T09:08:20;98937.53;;;23.44;60.19
34482;BME280;20720;48.886;9.388;2023-05-25T09:10:47;98924.59;;;24.21;57.70
34482;BME280;20720;48.886;9.388;2023-05-25T09:13:12;98938.34;;;23.74;58.23
34482;BME280;20720;48.886;9.388;2023-05-25T09:15:38;98935.78;;;24.73;56.05
34482;BME280;20720;48.886;9.388;2023-05-25T09:18:03;98927.34;;;23.71;56.21
34482;BME280;20720;48.886;9.388;2023-05-25T09:20:29;98931.75;;;22.95;57.66
34482;BME280;20720;48.886;9.388;2023-05-25T09:22:57;98937.44;;;25.13;53.79
34482;BME280;20720;48.886;9.388;2023-05-25T09:25:24;98937.78;;;23.97;56.53
34482;BME280;20720;48.886;9.388;2023-05-25T09:27:51;98935.88;;;23.27;58.52
34482;BME280;20720;48.886;9.388;2023-05-25T09:30:17;98933.59;;;21.86;63.51
34482;BME280;20720;48.886;9.388;2023-05-25T09:32:42;98929.22;;;23.50;60.96
34482;BME280;20720;48.886;9.388;2023-05-25T09:35:09;98940.91;;;25.18;55.97
34482;BME280;20720;48.886;9.388;2023-05-25T09:37:35;98937.22;;;25.04;55.25
34482;BME280;20720;48.886;9.388;2023-05-25T09:40:05;98944.53;;;23.75;58.00
34482;BME280;20720;48.886;9.388;2023-05-25T09:42:32;98941.19;;;23.22;58.82
34482;BME280;20720;48.886;9.388;2023-05-25T09:44:58;98943.91;;;24.38;57.56
34482;BME280;20720;48.886;9.388;2023-05-25T09:47:24;98952.97;;;24.67;55.96
34482;BME280;20720;48.886;9.388;2023-05-25T09:49:51;98950.16;;;24.08;59.35
34482;BME280;20720;48.886;9.388;2023-05-25T09:52:16;98941.25;;;28.14;49.67
34482;BME280;20720;48.886;9.388;2023-05-25T09:54:46;98941.31;;;26.08;50.10
34482;BME280;20720;48.886;9.388;2023-05-25T09:57:11;98943.84;;;25.66;51.72
34482;BME280;20720;48.886;9.388;2023-05-25T09:59:36;98937.94;;;25.59;55.23
34482;BME280;20720;48.886;9.388;2023-05-25T10:02:02;98939.41;;;23.83;57.71
34482;BME280;20720;48.886;9.388;2023-05-25T10:04:28;98936.91;;;27.12;50.37
34482;BME280;20720;48.886;9.388;2023-05-25T10:06:53;98935.44;;;26.01;50.05
34482;BME280;20720;48.886;9.388;2023-05-25T10:09:21;98934.88;;;26.33;54.53
34482;BME280;20720;48.886;9.388;2023-05-25T10:11:50;98935.16;;;25.74;55.10
34482;BME280;20720;48.886;9.388;2023-05-25T10:14:19;98931.13;;;27.74;51.93
34482;BME280;20720;48.886;9.388;2023-05-25T10:16:47;98924.72;;;26.48;50.39
34482;BME280;20720;48.886;9.388;2023-05-25T10:19:24;98933.66;;;26.20;52.47
34482;BME280;20720;48.886;9.388;2023-05-25T10:22:00;98935.06;;;26.88;50.04
34482;BME280;20720;48.886;9.388;2023-05-25T10:24:40;98939.78;;;25.97;51.56
34482;BME280;20720;48.886;9.388;2023-05-25T10:27:10;98931.06;;;25.81;52.35
34482;BME280;20720;48.886;9.388;2023-05-25T10:29:38;98919.56;;;24.88;54.37
34482;BME280;20720;48.886;9.388;2023-05-25T10:32:04;98929.75;;;26.02;54.12
34482;BME280;20720;48.886;9.388;2023-05-25T10:34:29;98923.47;;;26.17;51.90
34482;BME280;20720;48.886;9.388;2023-05-25T10:36:55;98927.25;;;26.16;52.55
34482;BME280;20720;48.886;9.388;2023-05-25T10:39:21;98923.88;;;26.95;49.23
34482;BME280;20720;48.886;9.388;2023-05-25T10:41:48;98921.03;;;26.63;51.01
34482;BME280;20720;48.886;9.388;2023-05-25T10:44:15;98922.94;;;28.93;47.76
34482;BME280;20720;48.886;9.388;2023-05-25T10:46:41;98919.19;;;25.82;50.32
34482;BME280;20720;48.886;9.388;2023-05-25T10:49:09;98923.84;;;25.33;52.97
34482;BME280;20720;48.886;9.388;2023-05-25T10:51:38;98916.06;;;25.32;52.49
34482;BME280;20720;48.886;9.388;2023-05-25T10:54:04;98914.06;;;26.15;50.81
34482;BME280;20720;48.886;9.388;2023-05-25T10:56:29;98915.22;;;25.75;50.71
34482;BME280;20720;48.886;9.388;2023-05-25T10:58:54;98921.28;;;26.90;50.48
34482;BME280;20720;48.886;9.388;2023-05-25T11:01:21;98906.88;;;27.69;49.43
34482;BME280;20720;48.886;9.388;2023-05-25T11:03:48;98912.38;;;28.55;48.56
34482;BME280;20720;48.886;9.388;2023-05-25T11:06:18;98913.09;;;29.90;44.90
34482;BME280;20720;48.886;9.388;2023-05-25T11:11:19;98924.03;;;28.37;48.25
34482;BME280;20720;48.886;9.388;2023-05-25T11:13:46;98918.91;;;25.06;52.68
34482;BME280;20720;48.886;9.388;2023-05-25T11:16:21;98924.53;;;24.56;56.61
34482;BME280;20720;48.886;9.388;2023-05-25T11:18:57;98911.78;;;27.35;52.58
34482;BME280;20720;48.886;9.388;2023-05-25T11:26:34;98910.03;;;26.83;50.14
34482;BME280;20720;48.886;9.388;2023-05-25T11:29:14;98907.28;;;25.60;54.43
34482;BME280;20720;48.886;9.388;2023-05-25T11:31:40;98914.22;;;26.23;50.30
34482;BME280;20720;48.886;9.388;2023-05-25T11:34:05;98904.00;;;26.91;51.26
34482;BME280;20720;48.886;9.388;2023-05-25T11:36:34;98910.53;;;26.19;52.50
34482;BME280;20720;48.886;9.388;2023-05-25T11:39:01;98909.03;;;24.23;53.82
34482;BME280;20720;48.886;9.388;2023-05-25T11:41:28;98910.63;;;26.56;51.84
34482;BME280;20720;48.886;9.388;2023-05-25T11:43:53;98901.94;;;26.12;53.61
34482;BME280;20720;48.886;9.388;2023-05-25T11:46:20;98906.47;;;26.40;51.09
34482;BME280;20720;48.886;9.388;2023-05-25T11:48:52;98899.47;;;26.16;51.49
34482;BME280;20720;48.886;9.388;2023-05-25T11:51:19;98908.56;;;26.25;50.46
34482;BME280;20720;48.886;9.388;2023-05-25T11:53:45;98904.88;;;26.16;52.68
34482;BME280;20720;48.886;9.388;2023-05-25T11:56:12;98903.59;;;27.03;49.78
34482;BME280;20720;48.886;9.388;2023-05-25T11:58:38;98909.88;;;25.98;52.75
34482;BME280;20720;48.886;9.388;2023-05-25T12:03:39;98902.41;;;28.10;48.16
34482;BME280;20720;48.886;9.388;2023-05-25T12:06:05;98900.69;;;28.41;46.27
34482;BME280;20720;48.886;9.388;2023-05-25T12:08:34;98896.22;;;26.66;48.41
34482;BME280;20720;48.886;9.388;2023-05-25T12:11:01;98905.28;;;26.75;51.40
34482;BME280;20720;48.886;9.388;2023-05-25T12:13:26;98897.53;;;26.68;49.86
34482;BME280;20720;48.886;9.388;2023-05-25T12:15:54;98896.88;;;27.69;48.74
34482;BME280;20720;48.886;9.388;2023-05-25T12:18:22;98890.91;;;29.22;46.64
34482;BME280;20720;48.886;9.388;2023-05-25T12:20:48;98901.53;;;26.94;50.00
34482;BME280;20720;48.886;9.388;2023-05-25T12:23:13;98902.25;;;25.09;51.85
34482;BME280;20720;48.886;9.388;2023-05-25T12:25:38;98895.25;;;26.57;49.99
34482;BME280;20720;48.886;9.388;2023-05-25T12:28:10;98888.94;;;29.00;46.93
34482;BME280;20720;48.886;9.388;2023-05-25T12:30:36;98892.53;;;26.38;50.54
34482;BME280;20720;48.886;9.388;2023-05-25T12:33:01;98892.56;;;26.33;52.43
34482;BME280;20720;48.886;9.388;2023-05-25T12:35:27;98888.38;;;28.08;47.44
34482;BME280;20720;48.886;9.388;2023-05-25T12:38:11;98888.97;;;26.19;50.44
34482;BME280;20720;48.886;9.388;2023-05-25T12:40:37;98893.81;;;28.76;48.20
34482;BME280;20720;48.886;9.388;2023-05-25T12:43:02;98896.22;;;25.23;53.96
34482;BME280;20720;48.886;9.388;2023-05-25T12:45:28;98896.97;;;26.71;51.20
34482;BME280;20720;48.886;9.388;2023-05-25T12:47:53;98886.00;;;28.07;48.89
34482;BME280;20720;48.886;9.388;2023-05-25T12:50:18;98901.69;;;25.80;52.41
34482;BME280;20720;48.886;9.388;2023-05-25T12:52:45;98895.66;;;26.45;51.79
34482;BME280;20720;48.886;9.388;2023-05-25T12:55:24;98900.69;;;28.41;46.74
34482;BME280;20720;48.886;9.388;2023-05-25T12:58:01;98894.56;;;26.23;52.23
34482;BME280;20720;48.886;9.388;2023-05-25T13:00:30;98890.66;;;27.37;49.28
34482;BME280;20720;48.886;9.388;2023-05-25T13:02:56;98893.00;;;28.75;49.01
34482;BME280;20720;48.886;9.388;2023-05-25T13:05:25;98889.47;;;26.45;48.89
34482;BME280;20720;48.886;9.388;2023-05-25T13:07:53;98896.94;;;27.32;49.21
34482;BME280;20720;48.886;9.388;2023-05-25T13:10:19;98900.91;;;25.79;52.52
34482;BME280;20720;48.886;9.388;2023-05-25T13:12:45;98896.81;;;25.87;52.85